Time;durP1;ratioP1;P1;durP2;ratioP2;P2;SDS_P1;SDS_P2;PMS_P1;PMS_P2;Temp;Humidity;BMP_temperature;BMP_pressure;BME280_temperature;BME280_humidity;BME280_pressure;Samples;Min_cycle;Max_cycle;Signal;HPM_P1;HPM_P2
2022/10/20 00:02:01;;;;;;;10.48;6.60;;;;;;;8.07;65.61;99664.44;4945278;28;20054;-94
2022/10/20 00:04:34;;;;;;;10.13;6.00;;;;;;;8.32;65.69;99686.50;4943796;28;20065;-94
2022/10/20 00:06:59;;;;;;;11.57;6.55;;;;;;;8.48;65.33;99697.25;4943954;28;20019;-94
2022/10/20 00:09:25;;;;;;;14.90;7.55;;;;;;;8.32;65.79;99681.94;4961148;28;20026;-94
2022/10/20 00:11:50;;;;;;;9.80;6.15;;;;;;;8.22;65.72;99666.53;4941768;28;20462;-94
2022/10/20 00:14:16;;;;;;;9.20;5.95;;;;;;;8.22;66.13;99681.81;4944327;28;20081;-94
2022/10/20 00:16:41;;;;;;;11.65;6.35;;;;;;;8.19;65.97;99682.28;4940172;28;20027;-94
2022/10/20 00:19:07;;;;;;;10.77;6.05;;;;;;;8.16;66.08;99680.13;4928217;28;20022;-94
2022/10/20 00:21:33;;;;;;;11.88;6.32;;;;;;;8.16;66.75;99677.44;4944064;28;20054;-94
2022/10/20 00:23:59;;;;;;;12.68;6.47;;;;;;;8.22;66.36;99671.09;4927762;28;20457;-94
2022/10/20 00:26:25;;;;;;;14.82;5.93;;;;;;;8.08;66.44;99666.03;4927711;28;20166;-94
2022/10/20 00:28:51;;;;;;;9.63;5.85;;;;;;;8.29;66.10;99677.88;4927381;28;20039;-94
2022/10/20 00:31:18;;;;;;;9.93;5.93;;;;;;;8.31;65.78;99664.25;4929457;28;20030;-94
2022/10/20 00:33:44;;;;;;;9.93;6.05;;;;;;;8.53;66.07;99682.28;4961492;28;20030;-94
2022/10/20 00:36:12;;;;;;;12.90;6.45;;;;;;;8.60;66.13;99666.81;4951596;28;20092;-94
2022/10/20 00:38:40;;;;;;;13.07;6.63;;;;;;;8.73;65.74;99649.53;4959059;28;20497;-94
2022/10/20 00:41:05;;;;;;;15.35;7.05;;;;;;;8.90;66.13;99658.31;4947528;28;20033;-93
2022/10/20 00:44:23;;;;;;;13.90;7.05;;;;;;;8.89;65.67;99692.44;4945187;28;20026;-95
2022/10/20 00:46:48;;;;;;;9.75;6.15;;;;;;;8.71;65.60;99671.25;4921915;28;20117;-94
2022/10/20 00:49:22;;;;;;;11.75;6.57;;;;;;;8.81;65.80;99675.94;4957543;28;20023;-94
2022/10/20 00:51:47;;;;;;;13.55;6.93;;;;;;;8.89;65.59;99659.41;4942803;28;20080;-94
2022/10/20 00:54:15;;;;;;;12.80;6.47;;;;;;;8.73;66.17;99673.69;4947173;28;20026;-94
2022/10/20 00:56:41;;;;;;;13.23;7.47;;;;;;;8.65;66.53;99650.75;4927197;28;20093;-94
2022/10/20 00:59:07;;;;;;;14.75;7.55;;;;;;;8.72;66.57;99651.41;4929506;28;20024;-94
2022/10/20 01:01:33;;;;;;;11.73;6.93;;;;;;;8.73;66.37;99652.22;4955777;28;20056;-94
2022/10/20 01:03:58;;;;;;;10.60;6.93;;;;;;;8.87;66.03;99648.91;4945426;28;20063;-94
2022/10/20 01:06:24;;;;;;;12.95;8.05;;;;;;;8.95;66.62;99644.97;4951465;28;20014;-94
2022/10/20 01:08:53;;;;;;;13.05;8.27;;;;;;;9.05;66.58;99674.63;4953927;28;20033;-94
2022/10/20 01:11:44;;;;;;;12.45;8.45;;;;;;;9.14;66.99;99655.41;4946730;28;20046;-94
2022/10/20 01:14:19;;;;;;;13.20;8.55;;;;;;;9.40;67.28;99672.59;4960400;28;20021;-94
2022/10/20 01:16:56;;;;;;;13.85;9.15;;;;;;;9.41;67.35;99666.97;4978082;28;20084;-94
2022/10/20 01:20:00;;;;;;;16.90;9.77;;;;;;;9.46;66.97;99664.34;4973916;28;20081;-95
2022/10/20 01:22:34;;;;;;;13.18;8.35;;;;;;;9.60;67.22;99663.91;4950581;28;20054;-94
2022/10/20 01:25:22;;;;;;;15.48;9.55;;;;;;;9.42;67.53;99657.84;4975211;28;20046;-94
2022/10/20 01:27:51;;;;;;;13.95;9.00;;;;;;;9.55;67.36;99656.63;4945944;28;20036;-94
2022/10/20 01:30:21;;;;;;;14.40;7.80;;;;;;;9.22;66.55;99641.50;4967071;28;21714;-95
2022/10/20 01:32:51;;;;;;;14.05;7.70;;;;;;;9.24;66.91;99661.69;4964380;28;20057;-94
2022/10/20 01:35:27;;;;;;;12.85;9.05;;;;;;;9.40;67.53;99676.09;4967705;28;20030;-95
2022/10/20 01:38:18;;;;;;;19.08;9.73;;;;;;;9.53;67.85;99684.81;4957069;28;20018;-94
2022/10/20 01:41:08;;;;;;;18.02;10.00;;;;;;;9.68;68.10;99701.91;4936380;28;20061;-94
2022/10/20 01:43:35;;;;;;;11.98;9.02;;;;;;;9.65;67.60;99678.22;4949834;28;20038;-94
2022/10/20 01:46:01;;;;;;;17.88;9.07;;;;;;;9.71;67.95;99687.13;4950224;28;20389;-94
2022/10/20 01:48:28;;;;;;;16.73;9.13;;;;;;;9.63;68.09;99674.97;4957696;28;20088;-94
2022/10/20 01:50:56;;;;;;;15.90;9.45;;;;;;;9.77;68.13;99686.09;4953501;28;20084;-94
2022/10/20 01:53:21;;;;;;;15.43;9.15;;;;;;;9.79;68.54;99686.66;4946757;28;20036;-94
2022/10/20 01:55:51;;;;;;;15.75;9.70;;;;;;;9.74;68.61;99675.06;4953117;28;20544;-94
2022/10/20 01:58:25;;;;;;;16.10;9.32;;;;;;;10.04;68.80;99713.00;4975008;28;20513;-94
2022/10/20 02:00:51;;;;;;;17.77;10.13;;;;;;;10.00;69.38;99708.38;4972628;28;20033;-94
2022/10/20 02:03:41;;;;;;;15.73;10.20;;;;;;;10.16;69.65;99722.75;4967871;28;20065;-93
2022/10/20 02:06:13;;;;;;;17.00;9.90;;;;;;;10.22;69.48;99725.22;4982300;28;20082;-95
2022/10/20 02:08:56;;;;;;;17.83;11.18;;;;;;;10.32;69.71;99719.16;4985316;28;20035;-94
2022/10/20 02:11:57;;;;;;;18.90;10.60;;;;;;;10.36;70.21;99717.56;4971074;28;20034;-94
2022/10/20 02:14:23;;;;;;;16.93;10.33;;;;;;;10.39;70.26;99706.28;4975313;28;20552;-93
2022/10/20 02:16:53;;;;;;;17.20;10.55;;;;;;;10.42;70.05;99703.06;4943325;28;20038;-94
2022/10/20 02:19:21;;;;;;;18.25;10.50;;;;;;;10.61;72.04;99711.53;4935095;28;20105;-94
2022/10/20 02:21:46;;;;;;;21.15;11.40;;;;;;;10.66;71.02;99722.31;4949231;28;20464;-94
2022/10/20 02:24:12;;;;;;;17.45;10.60;;;;;;;10.82;71.10;99725.94;4944089;28;20165;-94
2022/10/20 02:26:37;;;;;;;19.90;10.77;;;;;;;10.81;70.02;99735.09;4952804;28;20034;-94
2022/10/20 02:29:14;;;;;;;13.55;9.00;;;;;;;10.43;67.24;99739.69;4937843;28;20027;-94
2022/10/20 02:31:40;;;;;;;12.07;8.07;;;;;;;9.98;66.93;99719.41;4956458;28;20041;-94
2022/10/20 02:34:06;;;;;;;14.80;8.40;;;;;;;9.85;67.53;99733.25;4939674;28;20042;-94
2022/10/20 02:36:36;;;;;;;11.98;8.02;;;;;;;9.52;67.84;99713.56;4929122;28;20031;-94
2022/10/20 02:39:02;;;;;;;14.95;8.07;;;;;;;9.36;68.02;99723.34;4964401;28;20033;-94
2022/10/20 02:41:29;;;;;;;13.32;8.27;;;;;;;9.59;67.82;99730.31;4940559;28;20037;-94
2022/10/20 02:43:55;;;;;;;12.85;9.48;;;;;;;9.69;68.05;99743.03;4936722;28;20508;-94
2022/10/20 02:46:21;;;;;;;15.18;8.93;;;;;;;9.75;68.08;99746.59;4945006;28;20026;-94
2022/10/20 02:48:46;;;;;;;16.08;8.88;;;;;;;9.91;69.11;99756.44;4945274;28;20497;-94
2022/10/20 02:51:12;;;;;;;16.45;9.73;;;;;;;9.89;69.50;99740.56;4943416;28;20485;-94
2022/10/20 02:53:38;;;;;;;14.27;9.18;;;;;;;9.92;70.25;99731.19;4950826;28;20018;-94
2022/10/20 02:56:03;;;;;;;15.40;9.98;;;;;;;10.04;70.91;99741.75;4961511;28;20401;-94
2022/10/20 02:58:29;;;;;;;17.23;9.55;;;;;;;10.11;70.50;99747.75;4958249;28;20031;-94
2022/10/20 03:00:54;;;;;;;14.55;9.93;;;;;;;10.20;70.44;99756.97;4926565;28;20022;-94
2022/10/20 03:03:20;;;;;;;19.45;10.98;;;;;;;10.14;71.36;99743.72;4944367;28;20034;-93
2022/10/20 03:05:48;;;;;;;21.33;11.95;;;;;;;10.23;71.62;99753.78;4942317;28;20034;-94
2022/10/20 03:08:15;;;;;;;17.92;11.57;;;;;;;10.30;71.55;99762.47;4951181;28;20026;-93
2022/10/20 03:10:41;;;;;;;20.27;11.07;;;;;;;10.26;71.67;99758.63;4941729;28;20036;-93
2022/10/20 03:13:07;;;;;;;14.98;10.73;;;;;;;10.29;71.83;99754.63;4961709;28;20480;-94
2022/10/20 03:15:35;;;;;;;16.85;11.00;;;;;;;10.23;71.81;99734.94;4979628;28;20112;-94
2022/10/20 03:18:01;;;;;;;19.33;10.98;;;;;;;10.34;71.71;99746.63;4957678;28;20113;-94
2022/10/20 03:20:26;;;;;;;19.83;11.13;;;;;;;10.45;71.51;99763.66;4961406;28;20106;-95
2022/10/20 03:22:52;;;;;;;18.08;10.80;;;;;;;10.11;72.29;99766.59;4948126;28;20038;-96
2022/10/20 03:25:17;;;;;;;18.25;12.18;;;;;;;10.14;72.09;99755.31;4948722;28;20022;-94
2022/10/20 03:27:43;;;;;;;16.00;10.80;;;;;;;10.07;72.32;99760.91;4949027;28;20043;-94
2022/10/20 03:30:09;;;;;;;17.63;11.25;;;;;;;10.11;71.91;99755.81;4948611;28;20088;-95
2022/10/20 03:32:34;;;;;;;23.38;11.43;;;;;;;10.07;72.02;99749.34;4947918;28;20029;-95
2022/10/20 03:35:00;;;;;;;16.75;11.40;;;;;;;10.07;71.60;99743.97;4947634;28;20495;-89
2022/10/20 03:37:25;;;;;;;18.15;11.18;;;;;;;10.06;72.11;99748.50;4962994;28;20029;-90
2022/10/20 03:39:51;;;;;;;17.30;11.75;;;;;;;10.15;72.08;99762.31;4961821;28;20480;-89
2022/10/20 03:42:16;;;;;;;19.35;12.27;;;;;;;10.11;71.96;99770.09;4976927;28;20026;-89
2022/10/20 03:44:43;;;;;;;22.58;11.95;;;;;;;10.13;71.79;99775.22;4942429;28;20400;-89
2022/10/20 03:47:10;;;;;;;18.23;11.48;;;;;;;10.06;72.07;99774.59;4948318;28;20166;-90
2022/10/20 03:49:36;;;;;;;20.70;11.15;;;;;;;10.11;72.50;99782.72;4963964;28;20027;-89
2022/10/20 03:52:01;;;;;;;21.00;12.18;;;;;;;10.06;72.51;99775.41;4944135;28;20421;-89
2022/10/20 03:54:27;;;;;;;18.33;12.45;;;;;;;10.11;72.94;99780.84;4927061;28;20441;-89
2022/10/20 03:56:52;;;;;;;21.00;12.38;;;;;;;10.11;72.94;99788.91;4926921;28;20409;-89
2022/10/20 03:59:17;;;;;;;20.20;12.30;;;;;;;10.12;72.99;99787.03;4927117;28;20029;-90
2022/10/20 04:01:43;;;;;;;18.20;11.95;;;;;;;10.12;73.15;99784.34;4943295;28;20050;-90
2022/10/20 04:04:09;;;;;;;17.30;11.85;;;;;;;10.16;73.01;99793.53;4927347;28;20038;-90
2022/10/20 04:06:34;;;;;;;18.38;11.68;;;;;;;10.14;73.67;99792.16;4942966;28;20023;-89
2022/10/20 04:09:00;;;;;;;20.42;11.85;;;;;;;10.19;74.11;99800.28;4926986;28;20023;-89
2022/10/20 04:11:25;;;;;;;22.05;12.27;;;;;;;10.20;74.05;99791.94;4926744;28;20030;-89
2022/10/20 04:13:52;;;;;;;20.27;12.82;;;;;;;10.15;74.19;99794.63;4927107;28;20034;-90
2022/10/20 04:16:17;;;;;;;25.50;11.88;;;;;;;10.24;74.16;99801.13;4927173;28;20019;-90
2022/10/20 04:18:42;;;;;;;20.77;13.00;;;;;;;10.27;73.98;99800.66;4926595;28;20097;-89
2022/10/20 04:21:08;;;;;;;20.60;12.40;;;;;;;10.28;74.40;99806.84;4936864;29;20059;-92
2022/10/20 04:23:34;;;;;;;25.58;13.48;;;;;;;10.14;74.92;99806.44;4923785;29;20031;-90
2022/10/20 04:25:59;;;;;;;27.27;14.57;;;;;;;10.01;75.80;99806.84;4924738;29;20030;-89
2022/10/20 04:28:25;;;;;;;19.92;13.18;;;;;;;10.01;74.49;99807.66;4907745;29;20026;-90
2022/10/20 04:30:50;;;;;;;22.25;13.80;;;;;;;9.89;75.02;99805.09;4908146;29;20117;-91
2022/10/20 04:33:16;;;;;;;25.45;14.45;;;;;;;10.02;75.28;99808.47;4907517;29;20027;-92
2022/10/20 04:35:41;;;;;;;27.30;16.23;;;;;;;9.94;75.64;99807.06;4907788;29;20459;-91
2022/10/20 04:38:09;;;;;;;25.40;16.25;;;;;;;9.91;75.84;99810.25;4923507;29;20158;-93
2022/10/20 04:40:35;;;;;;;22.88;13.98;;;;;;;9.79;76.16;99805.00;4908550;29;20090;-92
2022/10/20 04:43:00;;;;;;;24.02;14.63;;;;;;;9.86;76.11;99796.75;4907914;29;20457;-92
2022/10/20 04:45:26;;;;;;;27.23;15.75;;;;;;;9.95;76.17;99814.03;4908199;29;20524;-92
2022/10/20 04:47:52;;;;;;;29.48;16.65;;;;;;;9.98;76.37;99810.88;4924309;29;20072;-92
2022/10/20 04:50:21;;;;;;;26.67;16.08;;;;;;;10.10;76.18;99821.44;4909895;29;20071;-93
2022/10/20 04:52:47;;;;;;;22.60;14.15;;;;;;;10.13;76.04;99820.97;4925668;29;20023;-93
2022/10/20 04:55:12;;;;;;;23.60;15.65;;;;;;;10.20;75.68;99824.25;4924688;29;20107;-92
2022/10/20 04:57:38;;;;;;;22.45;14.57;;;;;;;10.34;75.52;99845.41;4907929;29;20033;-93
2022/10/20 05:00:04;;;;;;;29.67;18.02;;;;;;;10.22;75.71;99826.69;4923802;29;20028;-92
2022/10/20 05:02:29;;;;;;;26.17;16.33;;;;;;;10.19;75.84;99819.13;4909320;29;20038;-93
2022/10/20 05:04:55;;;;;;;23.55;15.43;;;;;;;10.31;75.72;99834.09;4924433;29;20035;-94
2022/10/20 05:07:20;;;;;;;27.45;16.38;;;;;;;10.27;75.62;99837.50;4924111;29;20023;-92
2022/10/20 05:09:47;;;;;;;24.60;16.52;;;;;;;10.17;76.10;99845.47;4912785;28;20035;-94
2022/10/20 05:12:12;;;;;;;27.08;15.65;;;;;;;10.26;75.91;99854.72;4919813;28;20069;-91
2022/10/20 05:14:38;;;;;;;34.25;16.50;;;;;;;10.38;75.94;99865.38;4913233;28;20113;-92
2022/10/20 05:17:03;;;;;;;30.38;18.30;;;;;;;10.44;75.81;99864.34;4926917;28;20027;-92
2022/10/20 05:19:29;;;;;;;25.38;16.35;;;;;;;10.50;75.74;99866.81;4942177;28;20064;-93
2022/10/20 05:21:57;;;;;;;28.92;16.10;;;;;;;10.44;75.33;99856.28;4938304;28;20149;-94
2022/10/20 05:24:22;;;;;;;32.35;16.10;;;;;;;10.45;75.35;99861.38;4945163;28;20061;-93
2022/10/20 05:26:48;;;;;;;35.95;19.67;;;;;;;10.37;75.18;99866.41;4945225;28;20026;-94
2022/10/20 05:29:13;;;;;;;30.25;17.23;;;;;;;10.41;75.28;99897.16;4941802;28;20098;-93
2022/10/20 05:31:41;;;;;;;25.50;17.10;;;;;;;10.42;74.95;99883.44;4943042;28;20062;-93
2022/10/20 05:34:06;;;;;;;27.25;17.42;;;;;;;10.56;74.96;99899.16;4976558;28;20498;-96
2022/10/20 05:36:32;;;;;;;35.28;16.80;;;;;;;10.54;74.72;99882.47;4947586;28;20039;-93
2022/10/20 05:39:00;;;;;;;35.55;17.40;;;;;;;10.56;74.70;99901.88;4954842;28;20030;-94
2022/10/20 05:41:27;;;;;;;31.52;19.92;;;;;;;10.56;74.98;99904.56;4959293;28;20061;-94
2022/10/20 05:43:58;;;;;;;34.45;17.70;;;;;;;10.50;75.03;99901.03;4996498;28;20399;-94
2022/10/20 05:46:24;;;;;;;28.83;17.88;;;;;;;10.67;74.98;99915.19;4965636;28;20506;-94
2022/10/20 05:48:52;;;;;;;36.45;20.20;;;;;;;10.60;74.91;99914.56;4981436;28;20061;-93
2022/10/20 05:51:50;;;;;;;;;;;;;;;;;;;;;
2022/10/20 05:54:23;;;;;;;39.95;20.92;;;;;;;10.77;74.14;99938.69;4985174;28;20089;-95
2022/10/20 05:56:50;;;;;;;34.03;19.58;;;;;;;10.76;73.70;99939.75;4982623;28;20618;-93
2022/10/20 05:59:15;;;;;;;29.02;17.52;;;;;;;10.72;73.14;99927.88;4966781;28;20088;-96
2022/10/20 06:01:47;;;;;;;33.05;17.60;;;;;;;10.84;72.25;99947.38;4965897;28;20014;-94
2022/10/20 06:04:23;;;;;;;26.95;16.38;;;;;;;10.86;71.93;99949.81;4982815;28;20029;-94
2022/10/20 06:10:10;;;;;;;29.77;16.15;;;;;;;11.08;72.53;99977.50;5015133;28;20033;-94
2022/10/20 06:12:36;;;;;;;26.45;16.10;;;;;;;11.04;72.74;99965.59;4965436;28;20434;-94
2022/10/20 06:15:04;;;;;;;35.63;17.05;;;;;;;11.04;73.27;99967.47;4982509;28;20029;-95
2022/10/20 06:17:33;;;;;;;25.45;15.93;;;;;;;11.15;72.44;99976.47;4984243;28;20022;-95
2022/10/20 06:20:08;;;;;;;24.77;15.00;;;;;;;11.24;71.95;99980.31;4982236;28;20033;-94
2022/10/20 06:22:33;;;;;;;23.90;14.32;;;;;;;11.37;71.81;99985.28;4983936;28;20497;-94
2022/10/20 06:24:59;;;;;;;37.28;15.20;;;;;;;11.45;71.50;99998.25;4963476;28;20030;-95
2022/10/20 06:27:25;;;;;;;26.17;15.50;;;;;;;11.59;71.02;100009.41;4950178;28;20391;-94
2022/10/20 06:29:53;;;;;;;25.35;14.13;;;;;;;11.64;70.60;99989.75;4939842;28;20109;-95
2022/10/20 06:32:19;;;;;;;62.38;14.82;;;;;;;11.83;70.37;100007.16;4962865;28;20038;-93
2022/10/20 06:34:44;;;;;;;30.08;18.30;;;;;;;12.00;70.08;100015.09;4961130;28;20400;-92
2022/10/20 06:37:10;;;;;;;22.27;14.32;;;;;;;11.99;69.77;100005.38;4961067;28;20037;-90
2022/10/20 06:39:35;;;;;;;20.08;11.80;;;;;;;12.05;69.14;100006.22;4961503;28;20027;-93
2022/10/20 06:42:04;;;;;;;20.77;12.25;;;;;;;12.26;68.23;100026.81;4946318;28;20030;-93
2022/10/20 06:44:29;;;;;;;19.02;12.15;;;;;;;12.29;68.69;100029.00;4947679;28;20038;-94
2022/10/20 06:46:58;;;;;;;21.48;12.60;;;;;;;12.37;67.76;100022.28;4946356;28;20018;-93
2022/10/20 06:49:23;;;;;;;22.23;12.75;;;;;;;12.24;67.77;100025.47;4944970;28;20042;-93
2022/10/20 06:51:57;;;;;;;18.80;12.23;;;;;;;12.34;67.54;100026.31;4961472;28;20463;-96
2022/10/20 06:54:22;;;;;;;18.48;12.82;;;;;;;12.42;67.32;100024.19;4946397;28;20113;-95
2022/10/20 06:56:48;;;;;;;20.50;13.13;;;;;;;12.53;67.02;100042.03;4947143;28;20485;-93
2022/10/20 06:59:16;;;;;;;18.45;13.45;;;;;;;12.58;67.07;100043.97;4948708;28;20057;-94
2022/10/20 07:01:42;;;;;;;19.95;12.48;;;;;;;12.64;66.38;100038.31;4964406;28;20046;-95
2022/10/20 07:04:13;;;;;;;22.48;14.05;;;;;;;12.62;66.60;100029.66;4948245;28;20109;-91
2022/10/20 07:06:42;;;;;;;19.17;13.63;;;;;;;12.61;66.26;100019.91;4944437;28;20128;-93
2022/10/20 07:09:12;;;;;;;21.25;13.88;;;;;;;12.75;66.25;100025.66;4957720;28;20034;-93
2022/10/20 07:11:38;;;;;;;22.85;13.60;;;;;;;12.83;65.41;100030.53;4992625;28;20089;-94
2022/10/20 07:14:17;;;;;;;19.88;12.48;;;;;;;12.85;65.29;100025.66;4946742;28;20480;-96
2022/10/20 07:16:45;;;;;;;17.55;12.05;;;;;;;12.79;64.62;100032.13;4948307;28;20353;-93
2022/10/20 07:19:13;;;;;;;17.25;11.60;;;;;;;12.82;64.61;100030.78;4960739;28;20026;-93
2022/10/20 07:21:39;;;;;;;17.13;11.88;;;;;;;12.94;64.32;100064.59;4976778;28;20051;-92
2022/10/20 07:24:05;;;;;;;17.58;12.30;;;;;;;12.81;64.57;100045.41;4960824;28;20038;-92
2022/10/20 07:26:32;;;;;;;17.00;12.25;;;;;;;12.92;64.51;100038.91;4944371;28;20031;-91
2022/10/20 07:28:58;;;;;;;16.27;12.18;;;;;;;12.87;64.74;100041.63;4943962;28;20409;-92
2022/10/20 07:31:28;;;;;;;22.20;12.30;;;;;;;12.94;64.21;100045.66;4944486;28;20026;-91
2022/10/20 07:33:53;;;;;;;20.17;12.82;;;;;;;12.97;64.74;100044.34;4959578;28;20047;-92
2022/10/20 07:36:32;;;;;;;20.17;12.88;;;;;;;13.07;64.04;100048.94;4984638;28;20044;-94
2022/10/20 07:38:59;;;;;;;20.17;12.27;;;;;;;13.11;63.57;100058.97;4946857;28;20069;-91
2022/10/20 07:41:25;;;;;;;19.55;13.18;;;;;;;13.06;63.86;100048.13;4966256;28;20056;-94
2022/10/20 07:43:51;;;;;;;22.73;12.45;;;;;;;13.28;63.94;100063.28;4956898;28;20113;-94
2022/10/20 07:46:17;;;;;;;21.10;11.98;;;;;;;13.18;63.40;100045.19;4962470;28;20441;-92
2022/10/20 07:48:42;;;;;;;21.27;12.52;;;;;;;13.10;63.35;100045.72;4948940;28;20030;-93
2022/10/20 07:51:27;;;;;;;22.05;12.93;;;;;;;13.06;63.97;100056.25;4961308;28;20097;-93
2022/10/20 07:54:07;;;;;;;19.02;12.32;;;;;;;13.36;63.42;100068.19;4942059;28;20032;-93
2022/10/20 07:56:36;;;;;;;44.83;25.88;;;;;;;13.30;63.44;100069.28;4953663;28;20107;-92
2022/10/20 07:59:12;;;;;;;21.88;11.48;;;;;;;13.22;62.59;100054.38;4962557;28;20031;-94
2022/10/20 08:01:48;;;;;;;22.00;12.48;;;;;;;13.21;63.04;100055.44;4943719;28;20033;-95
2022/10/20 08:04:13;;;;;;;18.95;11.55;;;;;;;13.27;62.68;100067.09;4974478;28;20030;-93
2022/10/20 08:06:39;;;;;;;19.77;11.38;;;;;;;13.35;62.37;100074.72;4949915;28;20042;-95
2022/10/20 08:09:04;;;;;;;21.40;11.15;;;;;;;13.23;62.53;100047.88;4951035;28;20030;-94
2022/10/20 08:11:30;;;;;;;15.73;10.85;;;;;;;13.39;62.35;100064.97;4957583;28;20029;-92
2022/10/20 08:13:56;;;;;;;16.70;11.00;;;;;;;13.51;62.07;100053.88;4954625;28;20048;-95
2022/10/20 08:16:21;;;;;;;16.33;11.20;;;;;;;13.57;62.06;100050.06;4968382;28;20038;-93
2022/10/20 08:18:49;;;;;;;18.10;10.73;;;;;;;13.62;61.95;100054.69;4950818;28;20031;-94
2022/10/20 08:21:19;;;;;;;18.70;10.65;;;;;;;13.72;61.65;100051.97;4941333;28;20046;-94
2022/10/20 08:23:45;;;;;;;17.95;12.07;;;;;;;13.78;61.62;100050.88;4959922;28;20435;-96
2022/10/20 08:26:12;;;;;;;16.30;10.57;;;;;;;13.84;60.79;100038.97;4969358;28;20081;-94
2022/10/20 08:28:37;;;;;;;15.85;10.95;;;;;;;13.98;60.91;100060.06;4932382;28;20027;-95
2022/10/20 08:31:04;;;;;;;20.48;12.30;;;;;;;13.99;60.99;100045.44;4944245;28;20077;-93
2022/10/20 08:33:32;;;;;;;16.55;11.40;;;;;;;14.03;60.65;100057.31;4940479;28;20033;-94
2022/10/20 08:36:08;;;;;;;20.80;11.63;;;;;;;14.05;60.93;100065.97;4965631;28;20057;-93
2022/10/20 08:38:34;;;;;;;13.85;10.57;;;;;;;14.01;60.51;100037.81;4961455;28;20034;-93
2022/10/20 08:40:59;;;;;;;15.23;10.68;;;;;;;14.17;60.39;100069.19;4972118;28;20538;-94
2022/10/20 08:43:25;;;;;;;18.58;10.90;;;;;;;13.93;60.69;100045.44;4960947;28;20039;-94
2022/10/20 08:45:51;;;;;;;16.83;11.05;;;;;;;14.20;60.30;100062.44;4971197;28;20045;-94
2022/10/20 08:48:31;;;;;;;18.48;10.52;;;;;;;14.23;59.54;100049.13;4984041;28;20053;-95
2022/10/20 08:51:00;;;;;;;14.55;10.30;;;;;;;14.41;59.49;100057.75;4962901;28;20038;-96
2022/10/20 08:53:25;;;;;;;15.85;9.90;;;;;;;14.48;58.67;100050.94;4950047;28;20018;-96
2022/10/20 08:55:51;;;;;;;20.80;9.88;;;;;;;14.48;58.32;100063.69;4936625;28;20027;-95
2022/10/20 08:58:24;;;;;;;15.55;9.25;;;;;;;14.53;58.28;100066.38;4950368;28;20074;-95
2022/10/20 09:01:07;;;;;;;13.55;9.05;;;;;;;14.59;57.73;100057.19;4965044;28;20061;-95
2022/10/20 09:03:33;;;;;;;17.02;9.90;;;;;;;14.66;58.07;100062.28;4953415;28;20046;-96
2022/10/20 09:06:06;;;;;;;17.70;9.48;;;;;;;14.64;57.89;100054.44;4952178;28;20502;-94
2022/10/20 09:08:32;;;;;;;13.10;9.13;;;;;;;14.66;56.91;100065.00;4966019;28;20053;-96
2022/10/20 09:10:58;;;;;;;13.52;8.85;;;;;;;14.59;56.70;100053.63;4945211;28;20026;-93
2022/10/20 09:13:28;;;;;;;12.90;9.40;;;;;;;14.64;56.52;100062.56;4946405;28;20092;-94
2022/10/20 09:16:32;;;;;;;17.23;11.18;;;;;;;14.69;56.83;100061.72;4950594;28;20027;-95
2022/10/20 09:19:01;;;;;;;17.90;9.05;;;;;;;14.71;56.59;100068.50;4964109;28;20030;-95
2022/10/20 09:21:30;;;;;;;14.45;10.50;;;;;;;14.69;56.45;100056.28;4949583;28;20042;-94
2022/10/20 09:24:02;;;;;;;15.82;9.30;;;;;;;14.60;56.13;100057.97;4946950;28;20027;-93
2022/10/20 09:26:39;;;;;;;11.50;8.13;;;;;;;14.79;55.56;100052.72;4927134;28;20025;-93
2022/10/20 09:29:15;;;;;;;13.38;9.10;;;;;;;15.06;55.45;100063.94;4932348;28;20027;-95
2022/10/20 09:31:45;;;;;;;13.82;8.57;;;;;;;15.20;55.19;100068.75;4939631;28;20173;-96
2022/10/20 09:34:31;;;;;;;13.70;7.88;;;;;;;15.17;54.27;100059.28;4925870;28;20058;-96
2022/10/20 09:37:05;;;;;;;11.70;8.32;;;;;;;15.40;54.00;100084.06;4936989;28;20030;-94
2022/10/20 09:39:35;;;;;;;11.38;7.90;;;;;;;15.39;54.43;100079.75;4945885;29;20038;-94
2022/10/20 09:42:06;;;;;;;11.35;7.90;;;;;;;15.46;54.48;100077.50;4939236;28;20030;-94
2022/10/20 09:44:34;;;;;;;14.33;8.20;;;;;;;15.42;54.09;100068.31;4948323;28;20023;-96
2022/10/20 09:47:11;;;;;;;13.48;9.38;;;;;;;15.41;53.78;100056.66;4938150;28;20026;-96
2022/10/20 09:49:37;;;;;;;15.70;9.05;;;;;;;15.46;53.34;100044.94;4971913;28;20034;-95
2022/10/20 09:52:22;;;;;;;13.35;9.13;;;;;;;15.46;53.51;100050.38;4949741;28;20043;-95
2022/10/20 09:55:00;;;;;;;11.77;7.25;;;;;;;15.58;53.48;100050.81;4995827;28;20076;-96
2022/10/20 10:00:58;;;;;;;12.95;7.97;;;;;;;15.74;52.38;100048.78;4901743;29;20544;-92
2022/10/20 10:03:23;;;;;;;12.70;8.10;;;;;;;15.72;52.06;100035.50;4904970;29;20103;-92
2022/10/20 10:05:55;;;;;;;10.48;7.63;;;;;;;16.02;52.30;100070.78;4895063;29;20510;-93
2022/10/20 10:08:29;;;;;;;;;;;;;;;15.99;52.12;100063.22;4889509;29;20111;-91
2022/10/20 10:11:02;;;;;;;9.70;7.45;;;;;;;15.76;52.31;100035.75;4907462;29;19915;-92
2022/10/20 10:13:30;;;;;;;11.60;7.55;;;;;;;15.95;51.84;100055.63;4886002;29;20582;-94
2022/10/20 10:16:08;;;;;;;14.52;7.85;;;;;;;15.98;51.59;100031.72;4908216;29;20044;-93
2022/10/20 10:18:41;;;;;;;11.15;7.30;;;;;;;16.00;51.57;100051.25;4902975;29;20418;-95
2022/10/20 10:21:11;;;;;;;14.77;9.10;;;;;;;15.93;51.80;100029.88;4902265;29;20090;-94
2022/10/20 10:23:54;;;;;;;11.88;8.30;;;;;;;16.01;51.33;100039.31;4929525;29;20027;-93
2022/10/20 10:26:42;;;;;;;;;;;;;;;;;;;;;
2022/10/20 10:29:40;;;;;;;10.95;7.20;;;;;;;16.15;51.46;100037.50;4959216;29;20130;-93
2022/10/20 10:32:39;;;;;;;9.93;7.28;;;;;;;16.36;51.07;100054.38;4922145;29;20429;-92
2022/10/20 10:35:35;;;;;;;10.40;7.28;;;;;;;16.39;49.92;100047.56;4926072;29;20035;-94
2022/10/20 10:38:00;;;;;;;8.65;6.60;;;;;;;16.26;50.51;100019.97;4941802;29;20035;-93
2022/10/20 10:44:02;;;;;;;11.18;6.63;;;;;;;16.36;49.82;100016.34;4955993;28;20038;-94
2022/10/20 10:46:51;;;;;;;10.05;6.80;;;;;;;16.44;49.56;100020.34;4955101;28;20043;-93
2022/10/20 10:49:52;;;;;;;10.25;6.57;;;;;;;16.46;48.91;100020.84;4957957;28;20034;-93
2022/10/20 10:52:41;;;;;;;11.32;7.10;;;;;;;16.66;48.41;100033.34;4962305;28;20124;-94
2022/10/20 10:55:23;;;;;;;9.07;6.45;;;;;;;16.58;48.23;100002.19;4977384;28;20088;-94
2022/10/20 10:58:31;;;;;;;13.38;8.35;;;;;;;16.66;49.06;100011.59;4964125;28;20527;-92
2022/10/20 11:01:08;;;;;;;11.15;7.22;;;;;;;16.87;48.57;100028.44;4958808;28;20140;-93
2022/10/20 11:04:13;;;;;;;9.27;6.90;;;;;;;16.85;48.24;100020.63;5001197;28;20452;-95
2022/10/20 11:06:43;;;;;;;9.30;6.65;;;;;;;16.75;48.36;99993.53;5005363;28;20282;-94
2022/10/20 11:09:40;;;;;;;8.77;6.13;;;;;;;17.01;48.86;100018.44;4961642;28;20041;-95
2022/10/20 11:12:07;;;;;;;8.98;5.97;;;;;;;17.09;48.05;100015.06;4964675;28;20085;-94
2022/10/20 11:14:36;;;;;;;10.80;6.50;;;;;;;16.95;47.63;100020.47;4982066;28;20037;-95
2022/10/20 11:17:27;;;;;;;9.57;6.15;;;;;;;17.03;48.08;100013.53;4965326;28;20056;-96
2022/10/20 11:20:25;;;;;;;10.07;6.40;;;;;;;16.94;47.07;100002.50;4972289;28;20105;-96
2022/10/20 11:23:16;;;;;;;9.02;5.45;;;;;;;17.07;47.32;100002.88;4981696;28;20042;-96
2022/10/20 11:25:48;;;;;;;11.18;5.80;;;;;;;16.94;46.97;99983.47;5012935;28;20058;-96
2022/10/20 11:28:47;;;;;;;11.07;6.03;;;;;;;17.09;47.66;100001.47;4953287;28;20077;-94
2022/10/20 11:31:31;;;;;;;9.93;5.50;;;;;;;16.91;47.14;99972.38;4964313;28;20042;-93
2022/10/20 11:34:17;;;;;;;6.85;4.95;;;;;;;16.94;46.22;99972.59;4967462;28;20036;-92
2022/10/20 11:36:49;;;;;;;9.27;5.60;;;;;;;17.00;46.21;99984.19;4975245;28;20041;-96
2022/10/20 11:39:46;;;;;;;6.88;5.50;;;;;;;16.96;46.31;99981.25;4971358;28;20129;-94
2022/10/20 11:42:24;;;;;;;9.95;5.63;;;;;;;16.94;45.64;99961.69;4980985;28;20025;-94
2022/10/20 11:44:53;;;;;;;11.77;5.68;;;;;;;17.14;45.34;99981.50;4936948;28;20406;-95
2022/10/20 11:47:41;;;;;;;7.53;5.70;;;;;;;17.07;45.14;99976.47;4931778;28;20047;-96
2022/10/20 11:50:49;;;;;;;11.32;5.38;;;;;;;17.06;45.10;99976.78;4972665;28;20452;-96